sensor_id;sensor_type;location;lat;lon;timestamp;pressure;altitude;pressure_sealevel;temperature;humidity
40117;BME280;25829;50.228;18.936;2022-10-30T00:02:46;99089.97;;;11.13;76.64
40117;BME280;25829;50.228;18.936;2022-10-30T00:05:48;99099.91;;;11.04;76.59
40117;BME280;25829;50.228;18.936;2022-10-30T00:08:49;99099.00;;;10.91;76.94
40117;BME280;25829;50.228;18.936;2022-10-30T00:11:50;99083.31;;;10.82;77.02
40117;BME280;25829;50.228;18.936;2022-10-30T00:14:51;99081.84;;;10.80;77.06
40117;BME280;25829;50.228;18.936;2022-10-30T00:17:52;99080.06;;;10.80;77.04
40117;BME280;25829;50.228;18.936;2022-10-30T00:20:52;99076.78;;;10.78;77.22
40117;BME280;25829;50.228;18.936;2022-10-30T00:23:53;99081.44;;;10.76;77.00
40117;BME280;25829;50.228;18.936;2022-10-30T00:26:54;99085.91;;;10.76;76.95
40117;BME280;25829;50.228;18.936;2022-10-30T00:29:54;99087.94;;;10.74;76.73
40117;BME280;25829;50.228;18.936;2022-10-30T00:32:56;99083.00;;;10.71;76.60
40117;BME280;25829;50.228;18.936;2022-10-30T00:35:57;99085.59;;;10.64;76.34
40117;BME280;25829;50.228;18.936;2022-10-30T00:38:57;99089.38;;;10.55;76.72
40117;BME280;25829;50.228;18.936;2022-10-30T00:41:58;99089.97;;;10.50;76.67
40117;BME280;25829;50.228;18.936;2022-10-30T00:45:01;99086.69;;;10.48;76.53
40117;BME280;25829;50.228;18.936;2022-10-30T00:48:03;99087.91;;;10.46;76.32
40117;BME280;25829;50.228;18.936;2022-10-30T00:51:07;99094.38;;;10.43;76.56
40117;BME280;25829;50.228;18.936;2022-10-30T00:54:11;99088.84;;;10.38;76.40
40117;BME280;25829;50.228;18.936;2022-10-30T00:57:12;99093.69;;;10.34;76.26
40117;BME280;25829;50.228;18.936;2022-10-30T01:00:13;99074.19;;;10.29;76.41
40117;BME280;25829;50.228;18.936;2022-10-30T01:03:15;99081.44;;;10.27;76.54
40117;BME280;25829;50.228;18.936;2022-10-30T01:06:17;99069.44;;;10.24;76.46
40117;BME280;25829;50.228;18.936;2022-10-30T01:09:19;99074.13;;;10.22;76.63
40117;BME280;25829;50.228;18.936;2022-10-30T01:12:20;99064.59;;;10.21;77.03
40117;BME280;25829;50.228;18.936;2022-10-30T01:15:27;99066.75;;;10.18;77.35
40117;BME280;25829;50.228;18.936;2022-10-30T01:32:40;99080.66;;;10.05;76.62
40117;BME280;25829;50.228;18.936;2022-10-30T01:35:53;99074.94;;;10.01;76.59
40117;BME280;25829;50.228;18.936;2022-10-30T01:39:12;99065.22;;;10.02;76.51
40117;BME280;25829;50.228;18.936;2022-10-30T01:42:44;99069.69;;;10.01;76.69
40117;BME280;25829;50.228;18.936;2022-10-30T01:49:22;99064.34;;;9.95;76.96
40117;BME280;25829;50.228;18.936;2022-10-30T01:52:35;99076.34;;;9.97;77.09
40117;BME280;25829;50.228;18.936;2022-10-30T01:56:07;99084.69;;;10.01;77.21
40117;BME280;25829;50.228;18.936;2022-10-30T01:59:30;99080.47;;;10.06;77.24
40117;BME280;25829;50.228;18.936;2022-10-30T02:02:32;99082.91;;;10.08;77.08
40117;BME280;25829;50.228;18.936;2022-10-30T02:05:46;99084.97;;;10.13;77.00
40117;BME280;25829;50.228;18.936;2022-10-30T02:08:48;99083.53;;;10.10;77.18
40117;BME280;25829;50.228;18.936;2022-10-30T02:11:50;99080.09;;;10.09;77.14
40117;BME280;25829;50.228;18.936;2022-10-30T02:14:54;99075.63;;;10.10;76.69
40117;BME280;25829;50.228;18.936;2022-10-30T02:17:56;99065.06;;;10.10;76.90
40117;BME280;25829;50.228;18.936;2022-10-30T02:20:56;99064.91;;;10.11;76.92
40117;BME280;25829;50.228;18.936;2022-10-30T02:23:57;99064.91;;;10.11;76.59
40117;BME280;25829;50.228;18.936;2022-10-30T02:26:59;99060.81;;;10.09;76.42
40117;BME280;25829;50.228;18.936;2022-10-30T02:30:00;99064.63;;;10.06;76.62
40117;BME280;25829;50.228;18.936;2022-10-30T02:33:01;99064.19;;;10.03;76.52
40117;BME280;25829;50.228;18.936;2022-10-30T02:36:02;99049.78;;;9.99;76.60
40117;BME280;25829;50.228;18.936;2022-10-30T02:39:03;99045.31;;;9.99;76.74
40117;BME280;25829;50.228;18.936;2022-10-30T02:42:04;99045.94;;;10.01;76.81
40117;BME280;25829;50.228;18.936;2022-10-30T02:45:05;99033.59;;;10.02;76.56
40117;BME280;25829;50.228;18.936;2022-10-30T02:48:06;99044.94;;;10.02;76.58
40117;BME280;25829;50.228;18.936;2022-10-30T02:51:08;99039.03;;;10.00;76.80
40117;BME280;25829;50.228;18.936;2022-10-30T02:54:11;99048.97;;;9.98;76.56
40117;BME280;25829;50.228;18.936;2022-10-30T02:57:12;99035.34;;;9.95;76.66
40117;BME280;25829;50.228;18.936;2022-10-30T03:00:13;99043.25;;;9.95;76.88
40117;BME280;25829;50.228;18.936;2022-10-30T03:03:14;99050.91;;;9.90;76.28
40117;BME280;25829;50.228;18.936;2022-10-30T03:06:15;99064.22;;;9.81;76.89
40117;BME280;25829;50.228;18.936;2022-10-30T03:09:16;99060.94;;;9.79;77.28
40117;BME280;25829;50.228;18.936;2022-10-30T03:12:18;99056.69;;;9.78;76.95
40117;BME280;25829;50.228;18.936;2022-10-30T03:15:20;99058.50;;;9.78;77.02
40117;BME280;25829;50.228;18.936;2022-10-30T03:18:21;99064.56;;;9.78;77.11
40117;BME280;25829;50.228;18.936;2022-10-30T03:21:26;99074.31;;;9.78;76.96
40117;BME280;25829;50.228;18.936;2022-10-30T03:24:27;99074.69;;;9.75;77.08
40117;BME280;25829;50.228;18.936;2022-10-30T03:27:28;99084.41;;;9.74;77.05
40117;BME280;25829;50.228;18.936;2022-10-30T03:30:28;99083.41;;;9.75;76.86
40117;BME280;25829;50.228;18.936;2022-10-30T03:33:35;99079.78;;;9.76;77.05
40117;BME280;25829;50.228;18.936;2022-10-30T03:36:37;99085.06;;;9.76;77.17
40117;BME280;25829;50.228;18.936;2022-10-30T03:39:37;99084.22;;;9.76;77.09
40117;BME280;25829;50.228;18.936;2022-10-30T03:42:39;99089.31;;;9.77;77.29
40117;BME280;25829;50.228;18.936;2022-10-30T03:45:50;99085.28;;;9.81;77.60
40117;BME280;25829;50.228;18.936;2022-10-30T03:48:52;99073.50;;;9.77;78.66
40117;BME280;25829;50.228;18.936;2022-10-30T03:51:53;99067.34;;;9.70;79.31
40117;BME280;25829;50.228;18.936;2022-10-30T03:54:53;99053.91;;;9.65;79.96
40117;BME280;25829;50.228;18.936;2022-10-30T03:57:55;99058.00;;;9.68;80.57
40117;BME280;25829;50.228;18.936;2022-10-30T04:01:03;99058.88;;;9.75;80.48
40117;BME280;25829;50.228;18.936;2022-10-30T04:04:07;99051.03;;;9.81;80.36
40117;BME280;25829;50.228;18.936;2022-10-30T04:07:08;99064.06;;;9.90;80.25
40117;BME280;25829;50.228;18.936;2022-10-30T04:10:09;99052.78;;;9.96;79.69
40117;BME280;25829;50.228;18.936;2022-10-30T04:13:12;99064.41;;;10.01;79.36
40117;BME280;25829;50.228;18.936;2022-10-30T04:16:20;99061.03;;;10.07;79.21
40117;BME280;25829;50.228;18.936;2022-10-30T04:19:21;99060.44;;;10.12;79.17
40117;BME280;25829;50.228;18.936;2022-10-30T04:22:22;99051.53;;;10.13;78.73
40117;BME280;25829;50.228;18.936;2022-10-30T04:25:23;99044.25;;;10.15;78.86
40117;BME280;25829;50.228;18.936;2022-10-30T04:28:25;99045.66;;;10.18;78.80
40117;BME280;25829;50.228;18.936;2022-10-30T04:31:26;99067.03;;;10.23;78.93
40117;BME280;25829;50.228;18.936;2022-10-30T04:34:27;99069.84;;;10.21;78.41
40117;BME280;25829;50.228;18.936;2022-10-30T04:37:28;99073.69;;;10.19;78.21
40117;BME280;25829;50.228;18.936;2022-10-30T04:40:31;99080.78;;;10.18;78.30
40117;BME280;25829;50.228;18.936;2022-10-30T04:43:36;99074.66;;;10.18;77.84
40117;BME280;25829;50.228;18.936;2022-10-30T04:46:36;99072.66;;;10.20;77.88
40117;BME280;25829;50.228;18.936;2022-10-30T04:49:43;99074.28;;;10.21;77.98
40117;BME280;25829;50.228;18.936;2022-10-30T04:52:44;99078.59;;;10.22;78.07
40117;BME280;25829;50.228;18.936;2022-10-30T04:55:46;99072.28;;;10.23;78.11
40117;BME280;25829;50.228;18.936;2022-10-30T04:58:47;99077.38;;;10.24;78.11
40117;BME280;25829;50.228;18.936;2022-10-30T05:01:48;99072.94;;;10.25;78.25
40117;BME280;25829;50.228;18.936;2022-10-30T05:04:50;99058.47;;;10.21;78.62
40117;BME280;25829;50.228;18.936;2022-10-30T05:07:51;99064.97;;;10.18;79.07
40117;BME280;25829;50.228;18.936;2022-10-30T05:10:53;99060.50;;;10.19;79.51
40117;BME280;25829;50.228;18.936;2022-10-30T05:13:55;99063.56;;;10.22;79.57
40117;BME280;25829;50.228;18.936;2022-10-30T05:16:56;99069.06;;;10.27;79.88
40117;BME280;25829;50.228;18.936;2022-10-30T05:19:57;99063.03;;;10.33;79.70
40117;BME280;25829;50.228;18.936;2022-10-30T05:22:58;99060.84;;;10.37;79.28
40117;BME280;25829;50.228;18.936;2022-10-30T05:26:00;99061.09;;;10.42;79.32
40117;BME280;25829;50.228;18.936;2022-10-30T05:29:01;99061.53;;;10.46;78.79
40117;BME280;25829;50.228;18.936;2022-10-30T05:32:02;99068.22;;;10.48;78.85
40117;BME280;25829;50.228;18.936;2022-10-30T05:35:15;99055.47;;;10.52;79.07
40117;BME280;25829;50.228;18.936;2022-10-30T05:38:17;99053.84;;;10.51;79.14
40117;BME280;25829;50.228;18.936;2022-10-30T05:41:17;99056.69;;;10.49;79.28
40117;BME280;25829;50.228;18.936;2022-10-30T05:44:18;99064.00;;;10.54;79.59
40117;BME280;25829;50.228;18.936;2022-10-30T05:47:20;99063.63;;;10.57;79.79
40117;BME280;25829;50.228;18.936;2022-10-30T05:50:26;99067.50;;;10.61;79.58
40117;BME280;25829;50.228;18.936;2022-10-30T05:53:47;99072.78;;;10.61;79.86
40117;BME280;25829;50.228;18.936;2022-10-30T05:56:48;99073.59;;;10.62;79.76
40117;BME280;25829;50.228;18.936;2022-10-30T05:59:49;99075.03;;;10.64;80.14
40117;BME280;25829;50.228;18.936;2022-10-30T06:02:50;99072.19;;;10.66;80.17
40117;BME280;25829;50.228;18.936;2022-10-30T06:05:51;99080.16;;;10.72;80.23
40117;BME280;25829;50.228;18.936;2022-10-30T06:08:52;99075.16;;;10.77;79.92
40117;BME280;25829;50.228;18.936;2022-10-30T06:12:11;99081.69;;;10.81;80.26
40117;BME280;25829;50.228;18.936;2022-10-30T06:15:41;99079.25;;;10.87;80.16
40117;BME280;25829;50.228;18.936;2022-10-30T06:18:42;99086.63;;;10.91;80.05
40117;BME280;25829;50.228;18.936;2022-10-30T06:21:45;99082.38;;;10.97;80.15
40117;BME280;25829;50.228;18.936;2022-10-30T06:24:49;99078.53;;;10.99;80.01
40117;BME280;25829;50.228;18.936;2022-10-30T06:28:02;99076.09;;;10.98;80.25
40117;BME280;25829;50.228;18.936;2022-10-30T06:31:04;99084.19;;;10.96;80.35
40117;BME280;25829;50.228;18.936;2022-10-30T06:34:06;99084.03;;;10.98;80.54
40117;BME280;25829;50.228;18.936;2022-10-30T06:37:09;99085.44;;;11.00;80.61
40117;BME280;25829;50.228;18.936;2022-10-30T06:40:10;99086.50;;;11.06;80.53
40117;BME280;25829;50.228;18.936;2022-10-30T06:43:44;99094.44;;;11.13;80.44
40117;BME280;25829;50.228;18.936;2022-10-30T06:46:55;99091.84;;;11.19;80.53
40117;BME280;25829;50.228;18.936;2022-10-30T06:49:56;99086.34;;;11.21;80.21
40117;BME280;25829;50.228;18.936;2022-10-30T06:52:57;99092.88;;;11.25;80.74
40117;BME280;25829;50.228;18.936;2022-10-30T06:56:00;99089.03;;;11.27;80.61
40117;BME280;25829;50.228;18.936;2022-10-30T06:59:36;99093.28;;;11.28;80.68
40117;BME280;25829;50.228;18.936;2022-10-30T07:03:09;99091.91;;;11.33;80.62
40117;BME280;25829;50.228;18.936;2022-10-30T07:06:10;99087.66;;;11.38;80.69
40117;BME280;25829;50.228;18.936;2022-10-30T07:09:11;99097.22;;;11.39;80.38
40117;BME280;25829;50.228;18.936;2022-10-30T07:12:12;99104.53;;;11.37;80.59
40117;BME280;25829;50.228;18.936;2022-10-30T07:15:36;99111.25;;;11.40;80.82
40117;BME280;25829;50.228;18.936;2022-10-30T07:18:52;99095.81;;;11.43;80.78
40117;BME280;25829;50.228;18.936;2022-10-30T07:21:53;99087.50;;;11.46;80.70
40117;BME280;25829;50.228;18.936;2022-10-30T07:24:54;99093.59;;;11.47;80.64
40117;BME280;25829;50.228;18.936;2022-10-30T07:28:21;99098.06;;;11.46;80.64
40117;BME280;25829;50.228;18.936;2022-10-30T07:31:40;99100.31;;;11.49;80.83
40117;BME280;25829;50.228;18.936;2022-10-30T07:34:59;99093.22;;;11.57;81.06
40117;BME280;25829;50.228;18.936;2022-10-30T07:38:09;99088.56;;;11.65;80.80
40117;BME280;25829;50.228;18.936;2022-10-30T07:41:20;99102.44;;;11.74;80.56
40117;BME280;25829;50.228;18.936;2022-10-30T07:44:24;99098.16;;;11.80;80.53
40117;BME280;25829;50.228;18.936;2022-10-30T07:47:43;99092.09;;;11.92;80.79
40117;BME280;25829;50.228;18.936;2022-10-30T07:50:50;99095.38;;;12.01;80.25
40117;BME280;25829;50.228;18.936;2022-10-30T07:53:51;99094.00;;;12.12;80.04
40117;BME280;25829;50.228;18.936;2022-10-30T07:56:54;99095.63;;;12.19;80.11
40117;BME280;25829;50.228;18.936;2022-10-30T08:00:27;99074.25;;;12.28;79.41
40117;BME280;25829;50.228;18.936;2022-10-30T08:03:50;99078.09;;;12.38;79.50
40117;BME280;25829;50.228;18.936;2022-10-30T08:07:00;99072.19;;;12.49;79.53
40117;BME280;25829;50.228;18.936;2022-10-30T08:10:01;99073.22;;;12.55;79.18
40117;BME280;25829;50.228;18.936;2022-10-30T08:13:02;99071.19;;;12.57;78.69
40117;BME280;25829;50.228;18.936;2022-10-30T08:16:03;99077.06;;;12.59;78.76
40117;BME280;25829;50.228;18.936;2022-10-30T08:19:03;99082.19;;;12.67;78.59
40117;BME280;25829;50.228;18.936;2022-10-30T08:22:05;99077.06;;;12.72;78.38
40117;BME280;25829;50.228;18.936;2022-10-30T08:25:09;99081.31;;;12.80;78.55
40117;BME280;25829;50.228;18.936;2022-10-30T08:28:10;99080.09;;;12.89;78.39
40117;BME280;25829;50.228;18.936;2022-10-30T08:31:11;99074.38;;;12.99;78.02
40117;BME280;25829;50.228;18.936;2022-10-30T08:34:31;99071.69;;;13.06;77.46
40117;BME280;25829;50.228;18.936;2022-10-30T08:37:37;99062.31;;;13.10;77.60
40117;BME280;25829;50.228;18.936;2022-10-30T08:40:38;99054.13;;;13.11;77.59
40117;BME280;25829;50.228;18.936;2022-10-30T08:43:40;99058.63;;;13.17;77.91
40117;BME280;25829;50.228;18.936;2022-10-30T08:46:41;99057.41;;;13.27;77.62
40117;BME280;25829;50.228;18.936;2022-10-30T08:49:42;99056.31;;;13.41;77.64
40117;BME280;25829;50.228;18.936;2022-10-30T08:52:44;99058.66;;;13.56;77.50
40117;BME280;25829;50.228;18.936;2022-10-30T08:55:45;99054.31;;;13.75;77.26
40117;BME280;25829;50.228;18.936;2022-10-30T08:58:55;99055.19;;;13.94;77.04
40117;BME280;25829;50.228;18.936;2022-10-30T09:01:56;99053.41;;;14.12;76.64
40117;BME280;25829;50.228;18.936;2022-10-30T09:05:16;99056.97;;;14.31;75.86
40117;BME280;25829;50.228;18.936;2022-10-30T09:08:37;99047.41;;;14.49;75.34
40117;BME280;25829;50.228;18.936;2022-10-30T09:11:58;99045.59;;;14.68;75.09
40117;BME280;25829;50.228;18.936;2022-10-30T09:14:59;99046.44;;;14.87;74.29
40117;BME280;25829;50.228;18.936;2022-10-30T09:18:02;99046.50;;;14.98;73.80
40117;BME280;25829;50.228;18.936;2022-10-30T09:21:03;99043.38;;;15.20;73.87
40117;BME280;25829;50.228;18.936;2022-10-30T09:24:06;99048.91;;;15.55;73.19
40117;BME280;25829;50.228;18.936;2022-10-30T09:27:10;99042.91;;;16.01;72.75
40117;BME280;25829;50.228;18.936;2022-10-30T09:30:18;99038.94;;;16.69;72.03
40117;BME280;25829;50.228;18.936;2022-10-30T09:33:24;99035.66;;;17.43;70.23
40117;BME280;25829;50.228;18.936;2022-10-30T09:36:51;99031.41;;;18.21;68.34
40117;BME280;25829;50.228;18.936;2022-10-30T09:39:52;99035.22;;;18.81;67.30
40117;BME280;25829;50.228;18.936;2022-10-30T09:43:00;99039.69;;;19.41;65.90
40117;BME280;25829;50.228;18.936;2022-10-30T09:46:35;99040.53;;;19.96;64.05
40117;BME280;25829;50.228;18.936;2022-10-30T09:53:20;99034.19;;;20.87;61.96
40117;BME280;25829;50.228;18.936;2022-10-30T10:03:48;99027.78;;;21.61;58.20
40117;BME280;25829;50.228;18.936;2022-10-30T10:07:21;99034.50;;;21.84;58.99
40117;BME280;25829;50.228;18.936;2022-10-30T10:13:56;99032.13;;;22.18;56.42
40117;BME280;25829;50.228;18.936;2022-10-30T10:17:03;99024.31;;;22.22;58.26
40117;BME280;25829;50.228;18.936;2022-10-30T10:20:13;99025.41;;;22.26;56.96
40117;BME280;25829;50.228;18.936;2022-10-30T10:23:18;99034.28;;;22.21;57.65
40117;BME280;25829;50.228;18.936;2022-10-30T10:43:34;99023.47;;;20.02;57.22
40117;BME280;25829;50.228;18.936;2022-10-30T10:49:58;99018.72;;;19.55;59.21
40117;BME280;25829;50.228;18.936;2022-10-30T10:53:13;99011.03;;;19.37;59.21
40117;BME280;25829;50.228;18.936;2022-10-30T10:56:18;99010.13;;;19.26;60.03
40117;BME280;25829;50.228;18.936;2022-10-30T11:02:42;99000.00;;;19.06;59.93
40117;BME280;25829;50.228;18.936;2022-10-30T11:05:51;98998.06;;;19.01;60.30
40117;BME280;25829;50.228;18.936;2022-10-30T11:09:16;98988.22;;;19.07;59.94
40117;BME280;25829;50.228;18.936;2022-10-30T11:12:31;98992.88;;;19.17;60.46
40117;BME280;25829;50.228;18.936;2022-10-30T11:15:51;98994.88;;;19.26;60.08
40117;BME280;25829;50.228;18.936;2022-10-30T11:18:58;98992.25;;;19.31;60.42
40117;BME280;25829;50.228;18.936;2022-10-30T11:21:59;98994.41;;;19.34;60.20
40117;BME280;25829;50.228;18.936;2022-10-30T11:25:19;98985.66;;;19.39;59.76
40117;BME280;25829;50.228;18.936;2022-10-30T11:28:40;98978.44;;;19.40;59.73
40117;BME280;25829;50.228;18.936;2022-10-30T11:31:43;98982.16;;;19.39;60.40
40117;BME280;25829;50.228;18.936;2022-10-30T11:34:44;98982.97;;;19.39;60.04
40117;BME280;25829;50.228;18.936;2022-10-30T11:37:49;98974.13;;;19.39;60.16
40117;BME280;25829;50.228;18.936;2022-10-30T11:40:51;98972.28;;;19.39;60.07
40117;BME280;25829;50.228;18.936;2022-10-30T11:43:52;98982.72;;;19.41;60.04
40117;BME280;25829;50.228;18.936;2022-10-30T11:46:53;98986.69;;;19.38;59.72
40117;BME280;25829;50.228;18.936;2022-10-30T11:49:56;98981.03;;;19.34;59.72
40117;BME280;25829;50.228;18.936;2022-10-30T11:53:01;98981.00;;;19.29;59.77
40117;BME280;25829;50.228;18.936;2022-10-30T11:56:12;98977.75;;;19.27;59.48
40117;BME280;25829;50.228;18.936;2022-10-30T11:59:18;98979.88;;;19.25;59.77
40117;BME280;25829;50.228;18.936;2022-10-30T12:02:20;98975.84;;;19.23;59.53
40117;BME280;25829;50.228;18.936;2022-10-30T12:08:25;98970.13;;;19.14;59.49
40117;BME280;25829;50.228;18.936;2022-10-30T12:11:30;98972.00;;;19.14;59.54
40117;BME280;25829;50.228;18.936;2022-10-30T12:14:32;98959.69;;;19.13;59.50
40117;BME280;25829;50.228;18.936;2022-10-30T12:17:33;98965.34;;;19.16;59.46
40117;BME280;25829;50.228;18.936;2022-10-30T12:20:37;98966.72;;;19.19;59.03
40117;BME280;25829;50.228;18.936;2022-10-30T12:23:38;98963.47;;;19.17;59.17
40117;BME280;25829;50.228;18.936;2022-10-30T12:26:39;98965.34;;;19.16;59.21
40117;BME280;25829;50.228;18.936;2022-10-30T12:30:03;98970.38;;;19.13;58.60
40117;BME280;25829;50.228;18.936;2022-10-30T12:33:11;98969.19;;;19.03;59.29
40117;BME280;25829;50.228;18.936;2022-10-30T12:36:20;98957.66;;;18.98;59.50
40117;BME280;25829;50.228;18.936;2022-10-30T12:39:30;98958.97;;;18.95;59.87
40117;BME280;25829;50.228;18.936;2022-10-30T12:42:42;98946.09;;;18.92;60.12
40117;BME280;25829;50.228;18.936;2022-10-30T12:45:49;98948.75;;;18.92;60.13
40117;BME280;25829;50.228;18.936;2022-10-30T12:52:32;98955.97;;;18.92;59.91
40117;BME280;25829;50.228;18.936;2022-10-30T12:55:40;98953.53;;;18.90;60.35
40117;BME280;25829;50.228;18.936;2022-10-30T12:59:07;98954.09;;;18.92;60.17
40117;BME280;25829;50.228;18.936;2022-10-30T13:05:45;98938.63;;;18.94;60.34
40117;BME280;25829;50.228;18.936;2022-10-30T13:12:35;98941.03;;;18.96;60.00
40117;BME280;25829;50.228;18.936;2022-10-30T13:15:34;98937.06;;;18.98;59.97
40117;BME280;25829;50.228;18.936;2022-10-30T13:18:36;98935.19;;;18.99;59.85
40117;BME280;25829;50.228;18.936;2022-10-30T13:25:02;98933.63;;;19.03;59.15
40117;BME280;25829;50.228;18.936;2022-10-30T13:28:30;98929.66;;;19.05;58.32
40117;BME280;25829;50.228;18.936;2022-10-30T13:42:24;98932.84;;;19.02;58.74
40117;BME280;25829;50.228;18.936;2022-10-30T13:45:52;98933.06;;;19.01;58.67
40117;BME280;25829;50.228;18.936;2022-10-30T13:55:37;98932.66;;;18.87;59.15
40117;BME280;25829;50.228;18.936;2022-10-30T14:00:18;98924.28;;;18.83;59.44
40117;BME280;25829;50.228;18.936;2022-10-30T14:04:58;98925.16;;;18.84;59.56
40117;BME280;25829;50.228;18.936;2022-10-30T14:13:50;98924.81;;;18.80;59.86
40117;BME280;25829;50.228;18.936;2022-10-30T14:23:19;98936.13;;;18.66;61.00
40117;BME280;25829;50.228;18.936;2022-10-30T14:30:35;98933.00;;;18.52;61.61
40117;BME280;25829;50.228;18.936;2022-10-30T14:39:46;98936.41;;;18.47;61.57
40117;BME280;25829;50.228;18.936;2022-10-30T14:42:53;98929.66;;;18.39;61.55
40117;BME280;25829;50.228;18.936;2022-10-30T14:46:03;98922.31;;;18.30;61.75
40117;BME280;25829;50.228;18.936;2022-10-30T15:02:31;98923.69;;;17.99;62.51
40117;BME280;25829;50.228;18.936;2022-10-30T15:05:53;98915.06;;;17.91;62.57
40117;BME280;25829;50.228;18.936;2022-10-30T15:12:46;98919.50;;;17.69;62.99
40117;BME280;25829;50.228;18.936;2022-10-30T15:15:59;98918.78;;;17.57;63.09
40117;BME280;25829;50.228;18.936;2022-10-30T15:19:04;98911.19;;;17.49;63.05
40117;BME280;25829;50.228;18.936;2022-10-30T15:22:14;98915.28;;;17.39;63.27
40117;BME280;25829;50.228;18.936;2022-10-30T15:25:18;98909.31;;;17.32;63.38
40117;BME280;25829;50.228;18.936;2022-10-30T15:28:26;98921.97;;;17.25;63.56
40117;BME280;25829;50.228;18.936;2022-10-30T15:31:28;98911.69;;;17.17;63.67
40117;BME280;25829;50.228;18.936;2022-10-30T15:34:30;98915.19;;;17.06;63.70
40117;BME280;25829;50.228;18.936;2022-10-30T15:37:31;98915.00;;;16.95;64.14
40117;BME280;25829;50.228;18.936;2022-10-30T15:40:33;98918.28;;;16.86;64.03
40117;BME280;25829;50.228;18.936;2022-10-30T15:43:36;98923.66;;;16.74;64.35
40117;BME280;25829;50.228;18.936;2022-10-30T15:46:38;98917.53;;;16.62;64.57
40117;BME280;25829;50.228;18.936;2022-10-30T15:49:50;98919.91;;;16.46;64.91
40117;BME280;25829;50.228;18.936;2022-10-30T15:52:54;98928.13;;;16.33;65.22
40117;BME280;25829;50.228;18.936;2022-10-30T15:55:57;98925.69;;;16.20;65.53
40117;BME280;25829;50.228;18.936;2022-10-30T15:59:01;98923.50;;;16.05;65.69
40117;BME280;25829;50.228;18.936;2022-10-30T16:02:19;98921.31;;;15.90;66.23
40117;BME280;25829;50.228;18.936;2022-10-30T16:05:22;98911.56;;;15.72;66.61
40117;BME280;25829;50.228;18.936;2022-10-30T16:08:23;98911.53;;;15.61;67.01
40117;BME280;25829;50.228;18.936;2022-10-30T16:11:24;98918.81;;;15.53;67.31
40117;BME280;25829;50.228;18.936;2022-10-30T16:14:27;98922.03;;;15.44;67.42
40117;BME280;25829;50.228;18.936;2022-10-30T16:17:30;98917.84;;;15.36;67.68
40117;BME280;25829;50.228;18.936;2022-10-30T16:20:31;98919.25;;;15.27;67.89
40117;BME280;25829;50.228;18.936;2022-10-30T16:23:40;98917.44;;;15.21;68.14
40117;BME280;25829;50.228;18.936;2022-10-30T16:26:41;98917.53;;;15.14;68.17
40117;BME280;25829;50.228;18.936;2022-10-30T16:29:54;98917.63;;;15.07;68.34
40117;BME280;25829;50.228;18.936;2022-10-30T16:32:57;98917.94;;;14.99;68.69
40117;BME280;25829;50.228;18.936;2022-10-30T16:35:58;98915.59;;;14.91;68.65
40117;BME280;25829;50.228;18.936;2022-10-30T16:39:00;98916.13;;;14.81;68.60
40117;BME280;25829;50.228;18.936;2022-10-30T16:42:01;98916.19;;;14.75;69.08
40117;BME280;25829;50.228;18.936;2022-10-30T16:48:19;98913.13;;;14.59;69.57
40117;BME280;25829;50.228;18.936;2022-10-30T16:51:27;98911.59;;;14.52;69.89
40117;BME280;25829;50.228;18.936;2022-10-30T16:54:32;98914.31;;;14.45;69.69
40117;BME280;25829;50.228;18.936;2022-10-30T16:57:37;98920.06;;;14.42;69.91
40117;BME280;25829;50.228;18.936;2022-10-30T17:00:48;98906.66;;;14.37;70.21
40117;BME280;25829;50.228;18.936;2022-10-30T17:03:50;98915.50;;;14.31;70.32
40117;BME280;25829;50.228;18.936;2022-10-30T17:07:02;98915.31;;;14.26;70.52
40117;BME280;25829;50.228;18.936;2022-10-30T17:10:31;98917.56;;;14.22;70.77
40117;BME280;25829;50.228;18.936;2022-10-30T17:13:40;98922.94;;;14.15;70.43
40117;BME280;25829;50.228;18.936;2022-10-30T17:16:57;98924.44;;;14.11;70.83
40117;BME280;25829;50.228;18.936;2022-10-30T17:20:25;98921.84;;;14.05;70.79
40117;BME280;25829;50.228;18.936;2022-10-30T17:23:26;98920.50;;;13.96;70.62
40117;BME280;25829;50.228;18.936;2022-10-30T17:26:28;98929.53;;;13.88;70.74
40117;BME280;25829;50.228;18.936;2022-10-30T17:32:43;98914.63;;;13.69;71.37
40117;BME280;25829;50.228;18.936;2022-10-30T17:35:44;98916.75;;;13.53;71.81
40117;BME280;25829;50.228;18.936;2022-10-30T17:38:44;98922.72;;;13.49;71.43
40117;BME280;25829;50.228;18.936;2022-10-30T17:41:45;98917.84;;;13.46;71.58
40117;BME280;25829;50.228;18.936;2022-10-30T17:44:46;98915.03;;;13.40;71.90
40117;BME280;25829;50.228;18.936;2022-10-30T17:47:47;98912.00;;;13.37;71.80
40117;BME280;25829;50.228;18.936;2022-10-30T17:50:48;98918.97;;;13.31;71.81
40117;BME280;25829;50.228;18.936;2022-10-30T17:53:48;98918.81;;;13.26;71.79
40117;BME280;25829;50.228;18.936;2022-10-30T17:56:51;98914.94;;;13.22;71.63
40117;BME280;25829;50.228;18.936;2022-10-30T17:59:52;98915.38;;;13.19;71.74
40117;BME280;25829;50.228;18.936;2022-10-30T18:02:52;98910.66;;;13.14;71.56
40117;BME280;25829;50.228;18.936;2022-10-30T18:05:53;98910.75;;;13.01;72.17
40117;BME280;25829;50.228;18.936;2022-10-30T18:08:54;98915.69;;;12.91;72.16
40117;BME280;25829;50.228;18.936;2022-10-30T18:11:55;98913.47;;;12.88;72.52
40117;BME280;25829;50.228;18.936;2022-10-30T18:14:55;98907.19;;;12.82;72.47
40117;BME280;25829;50.228;18.936;2022-10-30T18:17:56;98914.13;;;12.77;72.75
40117;BME280;25829;50.228;18.936;2022-10-30T18:20:57;98919.41;;;12.77;72.46
40117;BME280;25829;50.228;18.936;2022-10-30T18:23:58;98912.72;;;12.74;72.40
40117;BME280;25829;50.228;18.936;2022-10-30T18:26:59;98921.28;;;12.69;72.72
40117;BME280;25829;50.228;18.936;2022-10-30T18:29:59;98924.56;;;12.65;72.50
40117;BME280;25829;50.228;18.936;2022-10-30T18:33:00;98921.13;;;12.58;72.61